sensor_id;sensor_type;location;lat;lon;timestamp;temperature;humidity
6270;DHT22;3168;51.684;6.954;2023-09-08T00:02:05;18.00;1.00
6270;DHT22;3168;51.684;6.954;2023-09-08T00:04:31;18.00;1.00
6270;DHT22;3168;51.684;6.954;2023-09-08T00:06:57;18.00;1.00
6270;DHT22;3168;51.684;6.954;2023-09-08T00:09:23;18.00;1.00
6270;DHT22;3168;51.684;6.954;2023-09-08T00:11:49;17.90;1.00
6270;DHT22;3168;51.684;6.954;2023-09-08T00:14:15;17.90;1.00
6270;DHT22;3168;51.684;6.954;2023-09-08T00:16:41;17.90;1.00
6270;DHT22;3168;51.684;6.954;2023-09-08T00:19:07;17.90;1.00
6270;DHT22;3168;51.684;6.954;2023-09-08T00:21:34;17.80;1.00
6270;DHT22;3168;51.684;6.954;2023-09-08T00:24:00;17.80;1.00
6270;DHT22;3168;51.684;6.954;2023-09-08T00:26:26;17.80;1.00
6270;DHT22;3168;51.684;6.954;2023-09-08T00:28:52;17.80;1.00
6270;DHT22;3168;51.684;6.954;2023-09-08T00:31:17;17.70;1.00
6270;DHT22;3168;51.684;6.954;2023-09-08T00:33:43;17.70;1.00
6270;DHT22;3168;51.684;6.954;2023-09-08T00:36:10;17.70;1.00
6270;DHT22;3168;51.684;6.954;2023-09-08T00:38:36;17.70;1.00
6270;DHT22;3168;51.684;6.954;2023-09-08T00:41:04;17.60;1.00
6270;DHT22;3168;51.684;6.954;2023-09-08T00:43:29;17.60;1.00
6270;DHT22;3168;51.684;6.954;2023-09-08T00:45:55;17.60;1.00
6270;DHT22;3168;51.684;6.954;2023-09-08T00:48:21;17.60;1.00
6270;DHT22;3168;51.684;6.954;2023-09-08T00:50:47;17.60;1.00
6270;DHT22;3168;51.684;6.954;2023-09-08T00:53:13;17.70;1.00
6270;DHT22;3168;51.684;6.954;2023-09-08T00:55:39;17.80;1.00
6270;DHT22;3168;51.684;6.954;2023-09-08T00:58:05;17.90;1.00
6270;DHT22;3168;51.684;6.954;2023-09-08T01:00:31;17.90;1.00
6270;DHT22;3168;51.684;6.954;2023-09-08T01:02:57;17.80;1.00
6270;DHT22;3168;51.684;6.954;2023-09-08T01:05:23;17.80;1.00
6270;DHT22;3168;51.684;6.954;2023-09-08T01:07:50;17.80;1.00
6270;DHT22;3168;51.684;6.954;2023-09-08T01:10:16;17.80;1.00
6270;DHT22;3168;51.684;6.954;2023-09-08T01:12:42;17.90;1.00
6270;DHT22;3168;51.684;6.954;2023-09-08T01:15:08;17.90;1.00
6270;DHT22;3168;51.684;6.954;2023-09-08T01:17:34;18.00;1.00
6270;DHT22;3168;51.684;6.954;2023-09-08T01:20:04;18.10;1.00
6270;DHT22;3168;51.684;6.954;2023-09-08T01:22:40;18.20;1.00
6270;DHT22;3168;51.684;6.954;2023-09-08T01:25:18;18.10;1.00
6270;DHT22;3168;51.684;6.954;2023-09-08T01:27:46;18.10;1.00
6270;DHT22;3168;51.684;6.954;2023-09-08T01:30:10;18.00;1.00
6270;DHT22;3168;51.684;6.954;2023-09-08T01:32:36;17.80;1.00
6270;DHT22;3168;51.684;6.954;2023-09-08T01:35:04;17.70;1.00
6270;DHT22;3168;51.684;6.954;2023-09-08T01:37:30;17.60;1.00
6270;DHT22;3168;51.684;6.954;2023-09-08T01:39:56;17.70;1.00
6270;DHT22;3168;51.684;6.954;2023-09-08T01:42:22;17.60;1.00
6270;DHT22;3168;51.684;6.954;2023-09-08T01:44:47;17.60;1.00
6270;DHT22;3168;51.684;6.954;2023-09-08T01:47:13;17.50;1.00
6270;DHT22;3168;51.684;6.954;2023-09-08T01:49:39;17.50;1.00
6270;DHT22;3168;51.684;6.954;2023-09-08T01:52:05;17.40;1.00
6270;DHT22;3168;51.684;6.954;2023-09-08T01:54:32;17.40;1.00
6270;DHT22;3168;51.684;6.954;2023-09-08T01:56:58;17.40;1.00
6270;DHT22;3168;51.684;6.954;2023-09-08T01:59:24;17.40;1.00
6270;DHT22;3168;51.684;6.954;2023-09-08T02:01:50;17.40;1.00
6270;DHT22;3168;51.684;6.954;2023-09-08T02:04:16;17.40;1.00
6270;DHT22;3168;51.684;6.954;2023-09-08T02:06:43;17.30;1.00
6270;DHT22;3168;51.684;6.954;2023-09-08T02:09:11;17.30;1.00
6270;DHT22;3168;51.684;6.954;2023-09-08T02:11:36;17.20;1.00
6270;DHT22;3168;51.684;6.954;2023-09-08T02:14:03;17.20;1.00
6270;DHT22;3168;51.684;6.954;2023-09-08T02:16:29;17.20;1.00
6270;DHT22;3168;51.684;6.954;2023-09-08T02:18:55;17.10;1.00
6270;DHT22;3168;51.684;6.954;2023-09-08T02:21:21;17.10;1.00
6270;DHT22;3168;51.684;6.954;2023-09-08T02:23:47;17.00;1.00
6270;DHT22;3168;51.684;6.954;2023-09-08T02:26:13;16.90;1.00
6270;DHT22;3168;51.684;6.954;2023-09-08T02:28:39;16.90;1.00
6270;DHT22;3168;51.684;6.954;2023-09-08T02:31:05;16.80;1.00
6270;DHT22;3168;51.684;6.954;2023-09-08T02:33:31;16.90;1.00
6270;DHT22;3168;51.684;6.954;2023-09-08T02:36:01;16.90;1.00
6270;DHT22;3168;51.684;6.954;2023-09-08T02:38:23;16.90;1.00
6270;DHT22;3168;51.684;6.954;2023-09-08T02:40:48;16.80;1.00
6270;DHT22;3168;51.684;6.954;2023-09-08T02:43:14;16.70;1.00
6270;DHT22;3168;51.684;6.954;2023-09-08T02:45:40;16.60;1.00
6270;DHT22;3168;51.684;6.954;2023-09-08T02:48:06;16.60;1.00
6270;DHT22;3168;51.684;6.954;2023-09-08T02:50:32;16.60;1.00
6270;DHT22;3168;51.684;6.954;2023-09-08T02:52:58;16.60;1.00
6270;DHT22;3168;51.684;6.954;2023-09-08T02:55:24;16.60;1.00
6270;DHT22;3168;51.684;6.954;2023-09-08T02:57:51;16.50;1.00
6270;DHT22;3168;51.684;6.954;2023-09-08T03:00:16;16.50;1.00
6270;DHT22;3168;51.684;6.954;2023-09-08T03:02:42;16.50;1.00
6270;DHT22;3168;51.684;6.954;2023-09-08T03:05:08;16.50;1.00
6270;DHT22;3168;51.684;6.954;2023-09-08T03:07:34;16.40;1.00
6270;DHT22;3168;51.684;6.954;2023-09-08T03:10:01;16.40;1.00
6270;DHT22;3168;51.684;6.954;2023-09-08T03:12:27;16.30;1.00
6270;DHT22;3168;51.684;6.954;2023-09-08T03:14:53;16.40;1.00
6270;DHT22;3168;51.684;6.954;2023-09-08T03:17:18;16.30;1.00
6270;DHT22;3168;51.684;6.954;2023-09-08T03:19:45;16.30;1.00
6270;DHT22;3168;51.684;6.954;2023-09-08T03:22:10;16.30;1.00
6270;DHT22;3168;51.684;6.954;2023-09-08T03:24:36;16.30;1.00
6270;DHT22;3168;51.684;6.954;2023-09-08T03:27:03;16.30;1.00
6270;DHT22;3168;51.684;6.954;2023-09-08T03:29:29;16.30;1.00
6270;DHT22;3168;51.684;6.954;2023-09-08T03:31:55;16.30;1.00
6270;DHT22;3168;51.684;6.954;2023-09-08T03:34:21;16.30;1.00
6270;DHT22;3168;51.684;6.954;2023-09-08T03:36:47;16.30;1.00
6270;DHT22;3168;51.684;6.954;2023-09-08T03:39:13;16.30;1.00
6270;DHT22;3168;51.684;6.954;2023-09-08T03:41:38;16.30;1.00
6270;DHT22;3168;51.684;6.954;2023-09-08T03:44:05;16.20;1.00
6270;DHT22;3168;51.684;6.954;2023-09-08T03:46:31;16.20;1.00
6270;DHT22;3168;51.684;6.954;2023-09-08T03:48:56;16.10;1.00
6270;DHT22;3168;51.684;6.954;2023-09-08T03:51:22;16.20;1.00
6270;DHT22;3168;51.684;6.954;2023-09-08T03:53:49;16.20;1.00
6270;DHT22;3168;51.684;6.954;2023-09-08T03:56:15;16.10;1.00
6270;DHT22;3168;51.684;6.954;2023-09-08T03:58:41;16.20;1.00
6270;DHT22;3168;51.684;6.954;2023-09-08T04:01:07;16.10;1.00
6270;DHT22;3168;51.684;6.954;2023-09-08T04:03:33;16.10;1.00
6270;DHT22;3168;51.684;6.954;2023-09-08T04:05:59;16.10;1.00
6270;DHT22;3168;51.684;6.954;2023-09-08T04:08:25;16.10;1.00
6270;DHT22;3168;51.684;6.954;2023-09-08T04:10:51;16.10;1.00
6270;DHT22;3168;51.684;6.954;2023-09-08T04:13:17;16.10;1.00
6270;DHT22;3168;51.684;6.954;2023-09-08T04:15:43;16.10;1.00
6270;DHT22;3168;51.684;6.954;2023-09-08T04:18:08;16.10;1.00
6270;DHT22;3168;51.684;6.954;2023-09-08T04:20:34;16.20;1.00
6270;DHT22;3168;51.684;6.954;2023-09-08T04:23:01;16.20;1.00
6270;DHT22;3168;51.684;6.954;2023-09-08T04:25:27;16.20;1.00
6270;DHT22;3168;51.684;6.954;2023-09-08T04:27:53;16.10;1.00
6270;DHT22;3168;51.684;6.954;2023-09-08T04:30:19;16.10;1.00
6270;DHT22;3168;51.684;6.954;2023-09-08T04:32:45;16.10;1.00
6270;DHT22;3168;51.684;6.954;2023-09-08T04:35:10;16.10;1.00
6270;DHT22;3168;51.684;6.954;2023-09-08T04:37:37;16.10;1.00
6270;DHT22;3168;51.684;6.954;2023-09-08T04:40:03;16.20;1.00
6270;DHT22;3168;51.684;6.954;2023-09-08T04:42:29;16.20;1.00
6270;DHT22;3168;51.684;6.954;2023-09-08T04:44:55;16.20;1.00
6270;DHT22;3168;51.684;6.954;2023-09-08T04:47:21;16.30;1.00
6270;DHT22;3168;51.684;6.954;2023-09-08T04:49:48;16.20;1.00
6270;DHT22;3168;51.684;6.954;2023-09-08T04:52:14;16.20;1.00
6270;DHT22;3168;51.684;6.954;2023-09-08T04:54:40;16.10;1.00
6270;DHT22;3168;51.684;6.954;2023-09-08T04:57:06;16.10;1.00
6270;DHT22;3168;51.684;6.954;2023-09-08T04:59:32;16.10;1.00
6270;DHT22;3168;51.684;6.954;2023-09-08T05:01:58;16.00;1.00
6270;DHT22;3168;51.684;6.954;2023-09-08T05:04:24;16.00;1.00
6270;DHT22;3168;51.684;6.954;2023-09-08T05:06:50;16.00;1.00
6270;DHT22;3168;51.684;6.954;2023-09-08T05:09:16;16.00;1.00
6270;DHT22;3168;51.684;6.954;2023-09-08T05:11:42;16.00;1.00
6270;DHT22;3168;51.684;6.954;2023-09-08T05:14:08;16.00;1.00
6270;DHT22;3168;51.684;6.954;2023-09-08T05:16:34;16.10;1.00
6270;DHT22;3168;51.684;6.954;2023-09-08T05:19:03;16.10;1.00
6270;DHT22;3168;51.684;6.954;2023-09-08T05:21:30;16.10;1.00
6270;DHT22;3168;51.684;6.954;2023-09-08T05:23:55;16.10;1.00
6270;DHT22;3168;51.684;6.954;2023-09-08T05:26:21;16.10;1.00
6270;DHT22;3168;51.684;6.954;2023-09-08T05:28:47;16.20;1.00
6270;DHT22;3168;51.684;6.954;2023-09-08T05:31:12;16.20;1.00
6270;DHT22;3168;51.684;6.954;2023-09-08T05:33:38;16.30;1.00
6270;DHT22;3168;51.684;6.954;2023-09-08T05:36:04;16.30;1.00
6270;DHT22;3168;51.684;6.954;2023-09-08T05:38:31;16.40;1.00
6270;DHT22;3168;51.684;6.954;2023-09-08T05:40:57;16.40;1.00
6270;DHT22;3168;51.684;6.954;2023-09-08T05:43:24;16.40;1.00
6270;DHT22;3168;51.684;6.954;2023-09-08T05:45:50;16.40;1.00
6270;DHT22;3168;51.684;6.954;2023-09-08T05:48:16;16.50;1.00
6270;DHT22;3168;51.684;6.954;2023-09-08T05:50:42;16.50;1.00
6270;DHT22;3168;51.684;6.954;2023-09-08T05:53:08;16.50;1.00
6270;DHT22;3168;51.684;6.954;2023-09-08T05:55:34;16.60;1.00
6270;DHT22;3168;51.684;6.954;2023-09-08T05:58:00;16.70;1.00
6270;DHT22;3168;51.684;6.954;2023-09-08T06:00:27;16.70;1.00
6270;DHT22;3168;51.684;6.954;2023-09-08T06:02:53;16.70;1.00
6270;DHT22;3168;51.684;6.954;2023-09-08T06:05:19;16.70;1.00
6270;DHT22;3168;51.684;6.954;2023-09-08T06:07:45;16.70;1.00
6270;DHT22;3168;51.684;6.954;2023-09-08T06:10:11;16.80;1.00
6270;DHT22;3168;51.684;6.954;2023-09-08T06:12:37;17.00;1.00
6270;DHT22;3168;51.684;6.954;2023-09-08T06:15:05;17.10;1.00
6270;DHT22;3168;51.684;6.954;2023-09-08T06:17:31;17.00;1.00
6270;DHT22;3168;51.684;6.954;2023-09-08T06:19:57;17.20;1.00
6270;DHT22;3168;51.684;6.954;2023-09-08T06:22:23;17.30;1.00
6270;DHT22;3168;51.684;6.954;2023-09-08T06:24:49;17.40;1.00
6270;DHT22;3168;51.684;6.954;2023-09-08T06:27:15;17.60;1.00
6270;DHT22;3168;51.684;6.954;2023-09-08T06:29:41;17.60;1.00
6270;DHT22;3168;51.684;6.954;2023-09-08T06:32:07;17.70;1.00
6270;DHT22;3168;51.684;6.954;2023-09-08T06:34:33;17.90;1.00
6270;DHT22;3168;51.684;6.954;2023-09-08T06:37:00;18.10;1.00
6270;DHT22;3168;51.684;6.954;2023-09-08T06:39:26;18.10;1.00
6270;DHT22;3168;51.684;6.954;2023-09-08T06:41:52;18.20;1.00
6270;DHT22;3168;51.684;6.954;2023-09-08T06:44:19;18.20;1.00
6270;DHT22;3168;51.684;6.954;2023-09-08T06:46:44;18.40;1.00
6270;DHT22;3168;51.684;6.954;2023-09-08T06:49:10;18.40;1.00
6270;DHT22;3168;51.684;6.954;2023-09-08T06:51:35;18.40;1.00
6270;DHT22;3168;51.684;6.954;2023-09-08T06:54:02;18.50;1.00
6270;DHT22;3168;51.684;6.954;2023-09-08T06:56:28;18.60;1.00
6270;DHT22;3168;51.684;6.954;2023-09-08T06:58:54;18.70;1.00
6270;DHT22;3168;51.684;6.954;2023-09-08T07:01:20;18.80;1.00
6270;DHT22;3168;51.684;6.954;2023-09-08T07:03:46;19.00;1.00
6270;DHT22;3168;51.684;6.954;2023-09-08T07:06:12;19.10;1.00
6270;DHT22;3168;51.684;6.954;2023-09-08T07:08:37;19.20;1.00
6270;DHT22;3168;51.684;6.954;2023-09-08T07:11:03;19.30;1.00
6270;DHT22;3168;51.684;6.954;2023-09-08T07:13:29;19.40;1.00
6270;DHT22;3168;51.684;6.954;2023-09-08T07:15:55;19.50;1.00
6270;DHT22;3168;51.684;6.954;2023-09-08T07:18:21;19.60;1.00
6270;DHT22;3168;51.684;6.954;2023-09-08T07:20:47;19.70;1.00
6270;DHT22;3168;51.684;6.954;2023-09-08T07:23:16;19.80;1.00
6270;DHT22;3168;51.684;6.954;2023-09-08T07:25:44;19.90;1.00
6270;DHT22;3168;51.684;6.954;2023-09-08T07:28:06;20.00;1.00
6270;DHT22;3168;51.684;6.954;2023-09-08T07:30:32;20.10;1.00
6270;DHT22;3168;51.684;6.954;2023-09-08T07:32:58;20.20;1.00
6270;DHT22;3168;51.684;6.954;2023-09-08T07:35:25;20.40;1.00
6270;DHT22;3168;51.684;6.954;2023-09-08T07:37:52;20.50;1.00
6270;DHT22;3168;51.684;6.954;2023-09-08T07:40:18;20.50;1.00
6270;DHT22;3168;51.684;6.954;2023-09-08T07:42:43;20.60;1.00
6270;DHT22;3168;51.684;6.954;2023-09-08T07:45:09;20.60;1.00
6270;DHT22;3168;51.684;6.954;2023-09-08T07:47:35;20.70;1.00
6270;DHT22;3168;51.684;6.954;2023-09-08T07:52:40;21.00;1.00
6270;DHT22;3168;51.684;6.954;2023-09-08T07:55:06;21.20;1.00
6270;DHT22;3168;51.684;6.954;2023-09-08T07:57:32;21.30;1.00
6270;DHT22;3168;51.684;6.954;2023-09-08T07:59:58;21.30;1.00
6270;DHT22;3168;51.684;6.954;2023-09-08T08:02:24;21.50;1.00
6270;DHT22;3168;51.684;6.954;2023-09-08T08:04:50;21.60;1.00
6270;DHT22;3168;51.684;6.954;2023-09-08T08:07:16;21.70;1.00
6270;DHT22;3168;51.684;6.954;2023-09-08T08:09:42;21.80;1.00
6270;DHT22;3168;51.684;6.954;2023-09-08T08:12:09;22.00;1.00
6270;DHT22;3168;51.684;6.954;2023-09-08T08:14:34;22.00;1.00
6270;DHT22;3168;51.684;6.954;2023-09-08T08:17:00;22.10;1.00
6270;DHT22;3168;51.684;6.954;2023-09-08T08:19:26;22.30;1.00
6270;DHT22;3168;51.684;6.954;2023-09-08T08:21:53;22.50;1.00
6270;DHT22;3168;51.684;6.954;2023-09-08T08:24:19;22.50;1.00
6270;DHT22;3168;51.684;6.954;2023-09-08T08:26:45;22.60;1.00
6270;DHT22;3168;51.684;6.954;2023-09-08T08:29:11;22.80;1.00
6270;DHT22;3168;51.684;6.954;2023-09-08T08:31:38;23.00;1.00
6270;DHT22;3168;51.684;6.954;2023-09-08T08:34:04;23.00;1.00
6270;DHT22;3168;51.684;6.954;2023-09-08T08:36:30;23.10;1.00
6270;DHT22;3168;51.684;6.954;2023-09-08T08:38:55;23.20;1.00
6270;DHT22;3168;51.684;6.954;2023-09-08T08:41:21;23.30;1.00
6270;DHT22;3168;51.684;6.954;2023-09-08T08:43:47;23.30;1.00
6270;DHT22;3168;51.684;6.954;2023-09-08T08:46:13;23.50;1.00
6270;DHT22;3168;51.684;6.954;2023-09-08T08:48:39;23.60;1.00
6270;DHT22;3168;51.684;6.954;2023-09-08T08:51:05;23.70;1.00
6270;DHT22;3168;51.684;6.954;2023-09-08T08:53:31;23.70;1.00
6270;DHT22;3168;51.684;6.954;2023-09-08T08:55:57;23.90;1.00
6270;DHT22;3168;51.684;6.954;2023-09-08T08:58:23;24.00;1.00
6270;DHT22;3168;51.684;6.954;2023-09-08T09:00:51;24.10;1.00
6270;DHT22;3168;51.684;6.954;2023-09-08T09:03:16;24.10;1.00
6270;DHT22;3168;51.684;6.954;2023-09-08T09:05:42;24.20;1.00
6270;DHT22;3168;51.684;6.954;2023-09-08T09:08:08;24.20;1.00
6270;DHT22;3168;51.684;6.954;2023-09-08T09:10:34;24.20;1.00
6270;DHT22;3168;51.684;6.954;2023-09-08T09:13:00;24.30;1.00
6270;DHT22;3168;51.684;6.954;2023-09-08T09:15:28;24.40;1.00
6270;DHT22;3168;51.684;6.954;2023-09-08T09:18:02;24.50;1.00
6270;DHT22;3168;51.684;6.954;2023-09-08T09:20:27;24.70;1.00
6270;DHT22;3168;51.684;6.954;2023-09-08T09:22:53;24.70;1.00
6270;DHT22;3168;51.684;6.954;2023-09-08T09:25:23;24.80;1.00
6270;DHT22;3168;51.684;6.954;2023-09-08T09:27:50;25.00;1.00
6270;DHT22;3168;51.684;6.954;2023-09-08T09:30:15;25.00;1.00
6270;DHT22;3168;51.684;6.954;2023-09-08T09:32:41;25.20;1.00
6270;DHT22;3168;51.684;6.954;2023-09-08T09:35:08;25.00;1.00
6270;DHT22;3168;51.684;6.954;2023-09-08T09:37:33;25.20;1.00
6270;DHT22;3168;51.684;6.954;2023-09-08T09:40:00;25.30;1.00
6270;DHT22;3168;51.684;6.954;2023-09-08T09:42:25;25.50;1.00
6270;DHT22;3168;51.684;6.954;2023-09-08T09:44:51;25.70;1.00
6270;DHT22;3168;51.684;6.954;2023-09-08T09:47:18;25.80;1.00
6270;DHT22;3168;51.684;6.954;2023-09-08T09:49:44;25.80;1.00
6270;DHT22;3168;51.684;6.954;2023-09-08T09:52:11;25.80;1.00
6270;DHT22;3168;51.684;6.954;2023-09-08T09:54:37;26.10;1.00
6270;DHT22;3168;51.684;6.954;2023-09-08T09:57:03;26.10;1.00
6270;DHT22;3168;51.684;6.954;2023-09-08T09:59:29;26.10;1.00
6270;DHT22;3168;51.684;6.954;2023-09-08T10:01:55;26.30;1.00
6270;DHT22;3168;51.684;6.954;2023-09-08T10:04:21;26.20;1.00
6270;DHT22;3168;51.684;6.954;2023-09-08T10:06:47;26.20;1.00
6270;DHT22;3168;51.684;6.954;2023-09-08T10:09:14;26.30;1.00
6270;DHT22;3168;51.684;6.954;2023-09-08T10:11:42;26.40;1.00
6270;DHT22;3168;51.684;6.954;2023-09-08T10:14:07;26.50;1.00
6270;DHT22;3168;51.684;6.954;2023-09-08T10:16:34;26.70;1.00
6270;DHT22;3168;51.684;6.954;2023-09-08T10:19:00;26.70;1.00
6270;DHT22;3168;51.684;6.954;2023-09-08T10:21:26;26.90;1.00
6270;DHT22;3168;51.684;6.954;2023-09-08T10:23:54;27.10;1.00
6270;DHT22;3168;51.684;6.954;2023-09-08T10:26:19;27.00;1.00
6270;DHT22;3168;51.684;6.954;2023-09-08T10:28:45;27.20;1.00
6270;DHT22;3168;51.684;6.954;2023-09-08T10:31:11;27.00;1.00
6270;DHT22;3168;51.684;6.954;2023-09-08T10:33:37;27.10;1.00
6270;DHT22;3168;51.684;6.954;2023-09-08T10:36:03;27.30;1.00
6270;DHT22;3168;51.684;6.954;2023-09-08T10:38:31;27.40;1.00
6270;DHT22;3168;51.684;6.954;2023-09-08T10:43:33;27.50;1.00
6270;DHT22;3168;51.684;6.954;2023-09-08T10:45:59;27.60;1.00
6270;DHT22;3168;51.684;6.954;2023-09-08T10:48:25;27.70;1.00
6270;DHT22;3168;51.684;6.954;2023-09-08T10:50:51;27.80;1.00
6270;DHT22;3168;51.684;6.954;2023-09-08T10:53:17;27.90;1.00
6270;DHT22;3168;51.684;6.954;2023-09-08T10:55:45;28.00;1.00
6270;DHT22;3168;51.684;6.954;2023-09-08T10:58:19;28.00;1.00
6270;DHT22;3168;51.684;6.954;2023-09-08T11:00:46;28.00;1.00
6270;DHT22;3168;51.684;6.954;2023-09-08T11:03:12;28.10;1.00
6270;DHT22;3168;51.684;6.954;2023-09-08T11:05:37;28.10;1.00
6270;DHT22;3168;51.684;6.954;2023-09-08T11:08:04;28.10;1.00
6270;DHT22;3168;51.684;6.954;2023-09-08T11:10:30;28.10;1.00
6270;DHT22;3168;51.684;6.954;2023-09-08T11:12:57;28.30;1.00
6270;DHT22;3168;51.684;6.954;2023-09-08T11:15:23;28.40;1.00
6270;DHT22;3168;51.684;6.954;2023-09-08T11:17:49;28.30;1.00
6270;DHT22;3168;51.684;6.954;2023-09-08T11:20:16;28.40;1.00
6270;DHT22;3168;51.684;6.954;2023-09-08T11:22:41;28.30;1.00
6270;DHT22;3168;51.684;6.954;2023-09-08T11:25:08;28.30;1.00
6270;DHT22;3168;51.684;6.954;2023-09-08T11:27:34;28.40;1.00
6270;DHT22;3168;51.684;6.954;2023-09-08T11:29:59;28.60;1.00
6270;DHT22;3168;51.684;6.954;2023-09-08T11:32:31;28.60;1.00
6270;DHT22;3168;51.684;6.954;2023-09-08T11:34:52;28.60;1.00
6270;DHT22;3168;51.684;6.954;2023-09-08T11:37:17;28.60;1.00
6270;DHT22;3168;51.684;6.954;2023-09-08T11:39:44;28.80;1.00
6270;DHT22;3168;51.684;6.954;2023-09-08T11:42:13;28.80;1.00
6270;DHT22;3168;51.684;6.954;2023-09-08T11:44:38;29.00;1.00
6270;DHT22;3168;51.684;6.954;2023-09-08T11:47:06;29.10;1.00
6270;DHT22;3168;51.684;6.954;2023-09-08T11:49:34;29.10;1.00
6270;DHT22;3168;51.684;6.954;2023-09-08T11:51:59;29.20;1.00
6270;DHT22;3168;51.684;6.954;2023-09-08T11:54:26;29.40;1.00
6270;DHT22;3168;51.684;6.954;2023-09-08T11:56:51;29.30;1.00
6270;DHT22;3168;51.684;6.954;2023-09-08T11:59:18;29.40;1.00
6270;DHT22;3168;51.684;6.954;2023-09-08T12:01:43;29.10;1.00
6270;DHT22;3168;51.684;6.954;2023-09-08T12:04:16;29.20;1.00
6270;DHT22;3168;51.684;6.954;2023-09-08T12:06:35;29.20;1.00
6270;DHT22;3168;51.684;6.954;2023-09-08T12:09:01;29.30;1.00
6270;DHT22;3168;51.684;6.954;2023-09-08T12:11:32;29.50;1.00
6270;DHT22;3168;51.684;6.954;2023-09-08T12:14:00;29.60;1.00
6270;DHT22;3168;51.684;6.954;2023-09-08T12:16:26;29.70;1.00
6270;DHT22;3168;51.684;6.954;2023-09-08T12:18:52;29.60;1.00
6270;DHT22;3168;51.684;6.954;2023-09-08T12:21:18;29.50;1.00
6270;DHT22;3168;51.684;6.954;2023-09-08T12:23:47;29.50;1.00
6270;DHT22;3168;51.684;6.954;2023-09-08T12:26:13;29.70;1.00
6270;DHT22;3168;51.684;6.954;2023-09-08T12:28:39;29.70;1.00
6270;DHT22;3168;51.684;6.954;2023-09-08T12:31:05;29.70;1.00
6270;DHT22;3168;51.684;6.954;2023-09-08T12:33:31;29.60;1.00
6270;DHT22;3168;51.684;6.954;2023-09-08T12:35:57;29.80;1.00
6270;DHT22;3168;51.684;6.954;2023-09-08T12:38:23;29.70;1.00
6270;DHT22;3168;51.684;6.954;2023-09-08T12:40:49;29.80;1.00
6270;DHT22;3168;51.684;6.954;2023-09-08T12:43:15;29.80;1.00
6270;DHT22;3168;51.684;6.954;2023-09-08T12:45:41;30.20;1.00
6270;DHT22;3168;51.684;6.954;2023-09-08T12:48:08;30.20;1.00
6270;DHT22;3168;51.684;6.954;2023-09-08T12:50:34;30.30;1.00
6270;DHT22;3168;51.684;6.954;2023-09-08T12:53:00;30.30;1.00
6270;DHT22;3168;51.684;6.954;2023-09-08T12:55:26;30.20;1.00
6270;DHT22;3168;51.684;6.954;2023-09-08T12:57:52;30.30;1.00
6270;DHT22;3168;51.684;6.954;2023-09-08T13:00:17;30.30;1.00
6270;DHT22;3168;51.684;6.954;2023-09-08T13:02:44;30.30;1.00
6270;DHT22;3168;51.684;6.954;2023-09-08T13:05:09;30.40;1.00
6270;DHT22;3168;51.684;6.954;2023-09-08T13:07:35;30.50;1.00
6270;DHT22;3168;51.684;6.954;2023-09-08T13:10:02;30.50;1.00
6270;DHT22;3168;51.684;6.954;2023-09-08T13:12:28;30.70;1.00
6270;DHT22;3168;51.684;6.954;2023-09-08T13:14:53;30.70;1.00
6270;DHT22;3168;51.684;6.954;2023-09-08T13:17:19;30.70;1.00
6270;DHT22;3168;51.684;6.954;2023-09-08T13:19:45;30.70;1.00
6270;DHT22;3168;51.684;6.954;2023-09-08T13:22:11;30.40;1.00
6270;DHT22;3168;51.684;6.954;2023-09-08T13:24:37;30.40;1.00
6270;DHT22;3168;51.684;6.954;2023-09-08T13:27:04;30.60;1.00
6270;DHT22;3168;51.684;6.954;2023-09-08T13:29:30;30.60;1.00
6270;DHT22;3168;51.684;6.954;2023-09-08T13:31:56;30.60;1.00
6270;DHT22;3168;51.684;6.954;2023-09-08T13:34:22;30.70;1.00
6270;DHT22;3168;51.684;6.954;2023-09-08T13:36:48;30.80;1.00
6270;DHT22;3168;51.684;6.954;2023-09-08T13:39:14;30.70;1.00
6270;DHT22;3168;51.684;6.954;2023-09-08T13:41:46;30.60;1.00
6270;DHT22;3168;51.684;6.954;2023-09-08T13:44:11;30.70;1.00
6270;DHT22;3168;51.684;6.954;2023-09-08T13:46:37;30.60;1.00
6270;DHT22;3168;51.684;6.954;2023-09-08T13:49:03;30.50;1.00
6270;DHT22;3168;51.684;6.954;2023-09-08T13:51:29;30.60;1.00
6270;DHT22;3168;51.684;6.954;2023-09-08T13:53:55;30.70;1.00
6270;DHT22;3168;51.684;6.954;2023-09-08T13:56:21;30.70;1.00
6270;DHT22;3168;51.684;6.954;2023-09-08T13:58:47;30.70;1.00
6270;DHT22;3168;51.684;6.954;2023-09-08T14:01:13;30.60;1.00
6270;DHT22;3168;51.684;6.954;2023-09-08T14:03:39;30.70;1.00
6270;DHT22;3168;51.684;6.954;2023-09-08T14:06:05;30.80;1.00
6270;DHT22;3168;51.684;6.954;2023-09-08T14:08:31;30.80;1.00
6270;DHT22;3168;51.684;6.954;2023-09-08T14:10:57;30.80;1.00
6270;DHT22;3168;51.684;6.954;2023-09-08T14:13:23;30.90;1.00
6270;DHT22;3168;51.684;6.954;2023-09-08T14:15:49;30.90;1.00
6270;DHT22;3168;51.684;6.954;2023-09-08T14:18:15;30.90;1.00
6270;DHT22;3168;51.684;6.954;2023-09-08T14:20:41;30.90;1.00
6270;DHT22;3168;51.684;6.954;2023-09-08T14:23:07;30.90;1.00
6270;DHT22;3168;51.684;6.954;2023-09-08T14:25:33;30.80;1.00
6270;DHT22;3168;51.684;6.954;2023-09-08T14:27:59;30.80;1.00
6270;DHT22;3168;51.684;6.954;2023-09-08T14:30:25;30.80;1.00
6270;DHT22;3168;51.684;6.954;2023-09-08T14:32:51;30.70;1.00
6270;DHT22;3168;51.684;6.954;2023-09-08T14:35:17;30.80;1.00
6270;DHT22;3168;51.684;6.954;2023-09-08T14:37:43;31.00;1.00
6270;DHT22;3168;51.684;6.954;2023-09-08T14:40:09;31.30;1.00
6270;DHT22;3168;51.684;6.954;2023-09-08T14:42:35;31.60;1.00
6270;DHT22;3168;51.684;6.954;2023-09-08T14:45:01;32.00;1.00
6270;DHT22;3168;51.684;6.954;2023-09-08T14:47:27;32.30;1.00
6270;DHT22;3168;51.684;6.954;2023-09-08T14:49:54;32.30;1.00
6270;DHT22;3168;51.684;6.954;2023-09-08T14:52:20;32.20;1.00
6270;DHT22;3168;51.684;6.954;2023-09-08T14:54:46;32.80;1.00
6270;DHT22;3168;51.684;6.954;2023-09-08T14:57:12;32.90;1.00
6270;DHT22;3168;51.684;6.954;2023-09-08T14:59:38;33.10;1.00
6270;DHT22;3168;51.684;6.954;2023-09-08T15:02:05;33.40;1.00
6270;DHT22;3168;51.684;6.954;2023-09-08T15:04:31;33.60;1.00
6270;DHT22;3168;51.684;6.954;2023-09-08T15:06:57;33.60;1.00
6270;DHT22;3168;51.684;6.954;2023-09-08T15:09:23;33.60;1.00
6270;DHT22;3168;51.684;6.954;2023-09-08T15:11:49;34.10;1.00
6270;DHT22;3168;51.684;6.954;2023-09-08T15:14:15;33.70;1.00
6270;DHT22;3168;51.684;6.954;2023-09-08T15:16:42;34.30;1.00
6270;DHT22;3168;51.684;6.954;2023-09-08T15:19:08;34.20;1.00
6270;DHT22;3168;51.684;6.954;2023-09-08T15:21:34;34.30;1.00
6270;DHT22;3168;51.684;6.954;2023-09-08T15:24:00;34.10;1.00
6270;DHT22;3168;51.684;6.954;2023-09-08T15:26:26;34.10;1.00
6270;DHT22;3168;51.684;6.954;2023-09-08T15:28:51;34.40;1.00
6270;DHT22;3168;51.684;6.954;2023-09-08T15:31:17;34.00;1.00
6270;DHT22;3168;51.684;6.954;2023-09-08T15:33:43;34.20;1.00
6270;DHT22;3168;51.684;6.954;2023-09-08T15:36:09;34.20;1.00
6270;DHT22;3168;51.684;6.954;2023-09-08T15:38:35;34.10;1.00
6270;DHT22;3168;51.684;6.954;2023-09-08T15:41:17;33.90;1.00
6270;DHT22;3168;51.684;6.954;2023-09-08T15:43:45;33.50;1.00
6270;DHT22;3168;51.684;6.954;2023-09-08T15:46:10;32.60;1.00
6270;DHT22;3168;51.684;6.954;2023-09-08T15:48:37;31.70;1.00
6270;DHT22;3168;51.684;6.954;2023-09-08T15:51:02;31.20;1.00
6270;DHT22;3168;51.684;6.954;2023-09-08T15:53:28;30.80;1.00
6270;DHT22;3168;51.684;6.954;2023-09-08T15:55:54;30.70;1.00
6270;DHT22;3168;51.684;6.954;2023-09-08T15:58:20;30.40;1.00
6270;DHT22;3168;51.684;6.954;2023-09-08T16:00:46;30.30;1.00
6270;DHT22;3168;51.684;6.954;2023-09-08T16:03:12;30.20;1.00
6270;DHT22;3168;51.684;6.954;2023-09-08T16:05:38;30.10;1.00
6270;DHT22;3168;51.684;6.954;2023-09-08T16:08:04;30.00;1.00
6270;DHT22;3168;51.684;6.954;2023-09-08T16:10:30;29.90;1.00
6270;DHT22;3168;51.684;6.954;2023-09-08T16:12:56;29.80;1.00
6270;DHT22;3168;51.684;6.954;2023-09-08T16:15:23;29.80;1.00